Flight Track Log - Related Links

Times and Time Zones

All times are in EDT time to prevent confusion due to time zone crossing. See the GJS3649 flight status page for this flight to view local times or setup timezone preferences in your user account.

Time Position Orientation Groundspeed Altitude Reporting Facility
EDT Latitude Longitude Course Direction KTS MPH feet Rate Location/Type
Fri 08:20:07 PM 41.9458 -72.7025 242° Southwest 174 200 1,000  Level Boston Center
Fri 08:21:20 PM 41.9683 -72.7892 289° West 202 232 4,000 2,481 Climbing Boston Center
Fri 08:22:20 PM 41.9597 -72.8894 263° West 232 267 6,500 2,900 Climbing Boston Center
Fri 08:23:20 PM 41.9467 -72.9928 260° West 258 297 9,800 2,500 Climbing Boston Center
Fri 08:24:00 PM 41.8688 -73.3624 236° Southwest  Level FlightAware Approximate
Fri 08:24:20 PM 41.9358 -73.0986 262° West 305 351 11,500  Level Boston Center
Fri 08:25:00 PM 41.8142 -73.4813 242° Southwest  Level FlightAware Approximate
Fri 08:25:20 PM 41.9161 -73.2408 259° West 351 404 13,600  Level Boston Center
Fri 08:26:20 PM 41.8756 -73.3686 247° West 369 425 15,800 2,200 Climbing Boston Center
Fri 08:27:20 PM 41.8183 -73.4931 238° Southwest 384 442 18,000 2,000 Climbing Boston Center
Fri 08:28:20 PM 41.7544 -73.6144 235° Southwest 397 457 19,800 1,900 Climbing Boston Center
Fri 08:29:20 PM 41.6869 -73.6939 221° Southwest 402 463 21,800 2,058 Climbing Boston Center
Fri 08:31:47 PM 41.4839 -73.9281 221° Southwest 388 447 26,900 1,785 Climbing New York Center
Fri 08:32:45 PM 41.3978 -74.0292 221° Southwest 398 458 27,900 559 Climbing New York Center
Fri 08:33:45 PM 41.3053 -74.1378 221° Southwest 425 489 28,000  Climbing New York Center
Fri 08:34:47 PM 41.1914 -74.2589 219° Southwest 451 519 27,900  Descending New York Center
Fri 08:35:47 PM 41.0964 -74.3722 222° Southwest 466 536 28,000 51 Climbing New York Center
Fri 08:36:45 PM 41.0014 -74.4800 221° Southwest 466 536 28,000  Level New York Center
Fri 08:37:47 PM 40.9103 -74.5931 223° Southwest 466 536 28,000  Level New York Center
Fri 08:38:46 PM 40.8575 -74.7411 245° Southwest 448 516 28,000  Level New York Center
Fri 08:39:47 PM 40.8125 -74.8947 249° West 443 510 28,000  Level New York Center
Fri 08:40:44 PM 40.7656 -75.0397 247° West 443 510 28,000  Level New York Center
Fri 08:41:46 PM 40.7186 -75.1903 248° West 448 516 28,000  Level New York Center
Fri 08:42:46 PM 40.6731 -75.3433 249° West 448 516 28,000 -198 Level New York Center
Fri 08:43:47 PM 40.6153 -75.4897 243° Southwest 448 516 27,600 -843 Descending New York Center
Fri 08:44:47 PM 40.5533 -75.6303 240° Southwest 453 521 26,300 -1,678 Descending New York Center
Fri 08:45:45 PM 40.4953 -75.7681 241° Southwest 447 514 24,300 -2,017 Descending New York Center
Fri 08:46:46 PM 40.4194 -75.8881 230° Southwest 436 502 22,300 -1,950 Descending New York Center
Fri 08:47:45 PM 40.3417 -75.9994 228° Southwest 430 495 20,400 -1,250 Descending New York Center
Fri 08:48:46 PM 40.2758 -76.1169 234° Southwest 425 489 19,800 -800 Descending New York Center
Fri 08:49:45 PM 40.2142 -76.2372 236° Southwest 414 476 18,800 -850 Descending New York Center
Fri 08:50:46 PM 40.1481 -76.3542 234° Southwest 404 465 18,100 -787 Descending New York Center
Fri 08:51:47 PM 40.0886 -76.4661 235° Southwest 399 459 17,200 -1,008 Descending New York Center
Fri 08:52:45 PM 40.0247 -76.5803 234° Southwest 392 451 16,100 -820 Descending New York Center
Fri 08:54:28 PM 39.9167 -76.7667 233° Southwest 380 437 15,000 -405 Descending Potomac TRACON
Fri 08:55:28 PM 39.8667 -76.8667 237° Southwest 363 418 15,000 -300 Level Potomac TRACON
Fri 08:56:28 PM 39.8333 -76.9667 247° West 330 380 14,400 -500 Descending Potomac TRACON
Fri 08:57:28 PM 39.8167 -77.0833 260° West 318 366 14,000 -600 Descending Potomac TRACON
Fri 08:58:28 PM 39.8000 -77.2000 260° West 312 359 13,200 -1,193 Descending Potomac TRACON
Fri 09:00:29 PM 39.6667 -77.3167 214° Southwest 290 334 10,400 -1,444 Descending Potomac TRACON
Fri 09:02:29 PM 39.5333 -77.4167 210° Southwest 282 325 7,400 -1,020 Descending Potomac TRACON
Fri 09:04:00 PM 39.3965 -77.3500 180° South  Level FlightAware Approximate
Fri 09:05:29 PM 39.3333 -77.4500 180° South 218 251 5,300  Level Potomac TRACON
Fri 09:06:29 PM 39.2667 -77.4500 180° South 214 246 4,300 -650 Descending Potomac TRACON
Fri 09:07:29 PM 39.2000 -77.4500 180° South 224 258 4,000 -300 Descending Potomac TRACON

Login

Don't have an account? Register now (free) for customized features, flight alerts, and more!